sensor_id;sensor_type;location;lat;lon;timestamp;temperature;humidity
11089;DHT22;5598;48.648;8.908;2023-03-14T00:01:27;8.70;99.90
11089;DHT22;5598;48.648;8.908;2023-03-14T00:03:53;8.70;99.90
11089;DHT22;5598;48.648;8.908;2023-03-14T00:06:20;8.70;99.90
11089;DHT22;5598;48.648;8.908;2023-03-14T00:08:49;8.70;99.90
11089;DHT22;5598;48.648;8.908;2023-03-14T00:11:19;8.70;99.90
11089;DHT22;5598;48.648;8.908;2023-03-14T00:13:46;8.80;99.90
11089;DHT22;5598;48.648;8.908;2023-03-14T00:16:13;8.80;99.90
11089;DHT22;5598;48.648;8.908;2023-03-14T00:18:40;8.80;99.90
11089;DHT22;5598;48.648;8.908;2023-03-14T00:21:08;8.80;99.90
11089;DHT22;5598;48.648;8.908;2023-03-14T00:23:37;8.80;99.90
11089;DHT22;5598;48.648;8.908;2023-03-14T00:26:08;8.80;99.90
11089;DHT22;5598;48.648;8.908;2023-03-14T00:28:36;8.80;99.90
11089;DHT22;5598;48.648;8.908;2023-03-14T00:31:03;8.80;99.90
11089;DHT22;5598;48.648;8.908;2023-03-14T00:33:30;8.70;99.90
11089;DHT22;5598;48.648;8.908;2023-03-14T00:35:58;8.70;99.90
11089;DHT22;5598;48.648;8.908;2023-03-14T00:38:26;8.60;99.90
11089;DHT22;5598;48.648;8.908;2023-03-14T00:40:53;8.60;99.90
11089;DHT22;5598;48.648;8.908;2023-03-14T00:43:22;8.60;99.90
11089;DHT22;5598;48.648;8.908;2023-03-14T00:45:49;8.60;99.90
11089;DHT22;5598;48.648;8.908;2023-03-14T00:48:15;8.70;99.90
11089;DHT22;5598;48.648;8.908;2023-03-14T00:50:42;8.70;99.90
11089;DHT22;5598;48.648;8.908;2023-03-14T00:53:09;8.70;99.90
11089;DHT22;5598;48.648;8.908;2023-03-14T00:55:37;8.70;99.90
11089;DHT22;5598;48.648;8.908;2023-03-14T00:58:04;8.70;99.90
11089;DHT22;5598;48.648;8.908;2023-03-14T01:00:32;8.80;99.90
11089;DHT22;5598;48.648;8.908;2023-03-14T01:02:59;8.70;99.90
11089;DHT22;5598;48.648;8.908;2023-03-14T01:05:26;8.70;99.90
11089;DHT22;5598;48.648;8.908;2023-03-14T01:07:52;8.70;99.90
11089;DHT22;5598;48.648;8.908;2023-03-14T01:10:19;8.70;99.90
11089;DHT22;5598;48.648;8.908;2023-03-14T01:12:46;8.70;99.90
11089;DHT22;5598;48.648;8.908;2023-03-14T01:15:13;8.60;99.90
11089;DHT22;5598;48.648;8.908;2023-03-14T01:17:41;8.60;99.90
11089;DHT22;5598;48.648;8.908;2023-03-14T01:20:11;8.60;99.90
11089;DHT22;5598;48.648;8.908;2023-03-14T01:22:40;8.60;99.90
11089;DHT22;5598;48.648;8.908;2023-03-14T01:25:08;8.60;99.90
11089;DHT22;5598;48.648;8.908;2023-03-14T01:27:36;8.60;99.90
11089;DHT22;5598;48.648;8.908;2023-03-14T01:30:03;8.60;99.90
11089;DHT22;5598;48.648;8.908;2023-03-14T01:32:30;8.60;99.90
11089;DHT22;5598;48.648;8.908;2023-03-14T01:34:58;8.60;99.90
11089;DHT22;5598;48.648;8.908;2023-03-14T01:37:25;8.60;99.90
11089;DHT22;5598;48.648;8.908;2023-03-14T01:39:52;8.50;99.90
11089;DHT22;5598;48.648;8.908;2023-03-14T01:42:18;8.50;99.90
11089;DHT22;5598;48.648;8.908;2023-03-14T01:44:50;8.50;99.90
11089;DHT22;5598;48.648;8.908;2023-03-14T01:47:17;8.50;99.90
11089;DHT22;5598;48.648;8.908;2023-03-14T01:49:45;8.50;99.90
11089;DHT22;5598;48.648;8.908;2023-03-14T01:52:16;8.50;99.90
11089;DHT22;5598;48.648;8.908;2023-03-14T01:54:48;8.40;99.90
11089;DHT22;5598;48.648;8.908;2023-03-14T01:57:18;8.40;99.90
11089;DHT22;5598;48.648;8.908;2023-03-14T01:59:49;8.40;99.90
11089;DHT22;5598;48.648;8.908;2023-03-14T02:02:18;8.40;99.90
11089;DHT22;5598;48.648;8.908;2023-03-14T02:04:45;8.50;99.90
11089;DHT22;5598;48.648;8.908;2023-03-14T02:07:16;8.50;99.90
11089;DHT22;5598;48.648;8.908;2023-03-14T02:09:44;8.50;99.90
11089;DHT22;5598;48.648;8.908;2023-03-14T02:12:13;8.50;99.90
11089;DHT22;5598;48.648;8.908;2023-03-14T02:14:41;8.40;99.90
11089;DHT22;5598;48.648;8.908;2023-03-14T02:17:13;8.40;99.90
11089;DHT22;5598;48.648;8.908;2023-03-14T02:19:52;8.40;99.90
11089;DHT22;5598;48.648;8.908;2023-03-14T02:22:23;8.40;99.90
11089;DHT22;5598;48.648;8.908;2023-03-14T02:24:57;8.40;99.90
11089;DHT22;5598;48.648;8.908;2023-03-14T02:27:29;8.40;99.90
11089;DHT22;5598;48.648;8.908;2023-03-14T02:29:58;8.40;99.90
11089;DHT22;5598;48.648;8.908;2023-03-14T02:32:28;8.40;99.90
11089;DHT22;5598;48.648;8.908;2023-03-14T02:34:59;8.40;99.90
11089;DHT22;5598;48.648;8.908;2023-03-14T02:37:32;8.40;99.90
11089;DHT22;5598;48.648;8.908;2023-03-14T02:40:01;8.40;99.90
11089;DHT22;5598;48.648;8.908;2023-03-14T02:42:31;8.40;99.90
11089;DHT22;5598;48.648;8.908;2023-03-14T02:45:25;8.30;99.90
11089;DHT22;5598;48.648;8.908;2023-03-14T02:47:59;8.30;99.90
11089;DHT22;5598;48.648;8.908;2023-03-14T02:50:31;8.20;99.90
11089;DHT22;5598;48.648;8.908;2023-03-14T02:53:00;8.20;99.90
11089;DHT22;5598;48.648;8.908;2023-03-14T02:55:27;8.10;99.90
11089;DHT22;5598;48.648;8.908;2023-03-14T02:57:55;8.10;99.90
11089;DHT22;5598;48.648;8.908;2023-03-14T03:00:21;8.00;99.90
11089;DHT22;5598;48.648;8.908;2023-03-14T03:02:48;8.00;99.90
11089;DHT22;5598;48.648;8.908;2023-03-14T03:05:15;8.00;99.90
11089;DHT22;5598;48.648;8.908;2023-03-14T03:07:42;8.00;99.90
11089;DHT22;5598;48.648;8.908;2023-03-14T03:10:09;8.00;99.90
11089;DHT22;5598;48.648;8.908;2023-03-14T03:12:36;8.00;99.90
11089;DHT22;5598;48.648;8.908;2023-03-14T03:15:06;8.00;99.90
11089;DHT22;5598;48.648;8.908;2023-03-14T03:17:33;8.00;99.90
11089;DHT22;5598;48.648;8.908;2023-03-14T03:19:59;8.00;99.90
11089;DHT22;5598;48.648;8.908;2023-03-14T03:22:26;8.00;99.90
11089;DHT22;5598;48.648;8.908;2023-03-14T03:24:53;8.00;99.90
11089;DHT22;5598;48.648;8.908;2023-03-14T03:27:20;7.90;99.90
11089;DHT22;5598;48.648;8.908;2023-03-14T03:29:46;7.90;99.90
11089;DHT22;5598;48.648;8.908;2023-03-14T03:32:14;8.00;99.90
11089;DHT22;5598;48.648;8.908;2023-03-14T03:34:41;7.90;99.90
11089;DHT22;5598;48.648;8.908;2023-03-14T03:37:08;7.90;99.90
11089;DHT22;5598;48.648;8.908;2023-03-14T03:39:35;7.80;99.90
11089;DHT22;5598;48.648;8.908;2023-03-14T03:42:01;7.90;99.90
11089;DHT22;5598;48.648;8.908;2023-03-14T03:44:28;7.80;99.90
11089;DHT22;5598;48.648;8.908;2023-03-14T03:46:55;7.80;99.90
11089;DHT22;5598;48.648;8.908;2023-03-14T03:49:23;7.80;99.90
11089;DHT22;5598;48.648;8.908;2023-03-14T03:51:50;7.80;99.90
11089;DHT22;5598;48.648;8.908;2023-03-14T03:54:17;7.70;99.90
11089;DHT22;5598;48.648;8.908;2023-03-14T03:56:44;7.80;99.90
11089;DHT22;5598;48.648;8.908;2023-03-14T03:59:10;7.80;99.90
11089;DHT22;5598;48.648;8.908;2023-03-14T04:01:37;7.80;99.90
11089;DHT22;5598;48.648;8.908;2023-03-14T04:04:04;7.70;99.90
11089;DHT22;5598;48.648;8.908;2023-03-14T04:06:32;7.70;99.90
11089;DHT22;5598;48.648;8.908;2023-03-14T04:09:00;7.70;99.90
11089;DHT22;5598;48.648;8.908;2023-03-14T04:11:27;7.70;99.90
11089;DHT22;5598;48.648;8.908;2023-03-14T04:13:53;7.70;99.90
11089;DHT22;5598;48.648;8.908;2023-03-14T04:16:22;7.70;99.90
11089;DHT22;5598;48.648;8.908;2023-03-14T04:18:49;7.70;99.90
11089;DHT22;5598;48.648;8.908;2023-03-14T04:21:16;7.70;99.90
11089;DHT22;5598;48.648;8.908;2023-03-14T04:23:44;7.70;99.90
11089;DHT22;5598;48.648;8.908;2023-03-14T04:26:11;7.70;99.90
11089;DHT22;5598;48.648;8.908;2023-03-14T04:28:38;7.70;99.90
11089;DHT22;5598;48.648;8.908;2023-03-14T04:31:09;7.70;99.90
11089;DHT22;5598;48.648;8.908;2023-03-14T04:33:36;7.70;99.90
11089;DHT22;5598;48.648;8.908;2023-03-14T04:36:03;7.70;99.90
11089;DHT22;5598;48.648;8.908;2023-03-14T04:38:31;7.70;99.90
11089;DHT22;5598;48.648;8.908;2023-03-14T04:40:59;7.70;99.90
11089;DHT22;5598;48.648;8.908;2023-03-14T04:43:26;7.70;99.90
11089;DHT22;5598;48.648;8.908;2023-03-14T04:45:53;7.70;99.90
11089;DHT22;5598;48.648;8.908;2023-03-14T04:48:21;7.70;99.90
11089;DHT22;5598;48.648;8.908;2023-03-14T04:50:48;7.70;99.90
11089;DHT22;5598;48.648;8.908;2023-03-14T04:53:15;7.60;99.90
11089;DHT22;5598;48.648;8.908;2023-03-14T04:55:46;7.70;99.90
11089;DHT22;5598;48.648;8.908;2023-03-14T04:58:15;7.60;99.90
11089;DHT22;5598;48.648;8.908;2023-03-14T05:00:41;7.60;99.90
11089;DHT22;5598;48.648;8.908;2023-03-14T05:03:08;7.70;99.90
11089;DHT22;5598;48.648;8.908;2023-03-14T05:05:35;7.60;99.90
11089;DHT22;5598;48.648;8.908;2023-03-14T05:08:02;7.60;99.90
11089;DHT22;5598;48.648;8.908;2023-03-14T05:10:28;7.60;99.90
11089;DHT22;5598;48.648;8.908;2023-03-14T05:12:55;7.60;99.90
11089;DHT22;5598;48.648;8.908;2023-03-14T05:15:24;7.60;99.90
11089;DHT22;5598;48.648;8.908;2023-03-14T05:17:50;7.60;99.90
11089;DHT22;5598;48.648;8.908;2023-03-14T05:20:18;7.60;99.90
11089;DHT22;5598;48.648;8.908;2023-03-14T05:22:45;7.70;99.90
11089;DHT22;5598;48.648;8.908;2023-03-14T05:25:11;7.70;99.90
11089;DHT22;5598;48.648;8.908;2023-03-14T05:27:38;7.70;99.90
11089;DHT22;5598;48.648;8.908;2023-03-14T05:30:06;7.80;99.90
11089;DHT22;5598;48.648;8.908;2023-03-14T05:32:34;7.80;99.90
11089;DHT22;5598;48.648;8.908;2023-03-14T05:35:01;7.80;99.90
11089;DHT22;5598;48.648;8.908;2023-03-14T05:37:28;7.80;99.90
11089;DHT22;5598;48.648;8.908;2023-03-14T05:39:55;7.80;99.90
11089;DHT22;5598;48.648;8.908;2023-03-14T05:42:22;7.70;99.90
11089;DHT22;5598;48.648;8.908;2023-03-14T05:44:48;7.70;99.90
11089;DHT22;5598;48.648;8.908;2023-03-14T05:47:15;7.70;99.90
11089;DHT22;5598;48.648;8.908;2023-03-14T05:49:43;7.70;99.90
11089;DHT22;5598;48.648;8.908;2023-03-14T05:52:10;7.70;99.90
11089;DHT22;5598;48.648;8.908;2023-03-14T05:54:37;7.70;99.90
11089;DHT22;5598;48.648;8.908;2023-03-14T05:57:06;7.70;99.90
11089;DHT22;5598;48.648;8.908;2023-03-14T05:59:33;7.70;99.90
11089;DHT22;5598;48.648;8.908;2023-03-14T06:02:00;7.70;99.90
11089;DHT22;5598;48.648;8.908;2023-03-14T06:04:27;7.70;99.90
11089;DHT22;5598;48.648;8.908;2023-03-14T06:06:55;7.70;99.90
11089;DHT22;5598;48.648;8.908;2023-03-14T06:09:21;7.60;99.90
11089;DHT22;5598;48.648;8.908;2023-03-14T06:11:49;7.70;99.90
11089;DHT22;5598;48.648;8.908;2023-03-14T06:14:16;7.70;99.90
11089;DHT22;5598;48.648;8.908;2023-03-14T06:16:42;7.60;99.90
11089;DHT22;5598;48.648;8.908;2023-03-14T06:19:09;7.60;99.90
11089;DHT22;5598;48.648;8.908;2023-03-14T06:21:37;7.70;99.90
11089;DHT22;5598;48.648;8.908;2023-03-14T06:24:05;7.70;99.90
11089;DHT22;5598;48.648;8.908;2023-03-14T06:26:32;7.80;99.90
11089;DHT22;5598;48.648;8.908;2023-03-14T06:28:59;7.90;99.90
11089;DHT22;5598;48.648;8.908;2023-03-14T06:31:29;7.90;99.90
11089;DHT22;5598;48.648;8.908;2023-03-14T06:33:55;8.00;99.90
11089;DHT22;5598;48.648;8.908;2023-03-14T06:36:22;8.00;99.90
11089;DHT22;5598;48.648;8.908;2023-03-14T06:38:49;8.10;99.90
11089;DHT22;5598;48.648;8.908;2023-03-14T06:41:17;8.40;99.90
11089;DHT22;5598;48.648;8.908;2023-03-14T06:43:44;8.50;99.90
11089;DHT22;5598;48.648;8.908;2023-03-14T06:46:11;8.60;99.90
11089;DHT22;5598;48.648;8.908;2023-03-14T06:48:38;8.70;99.90
11089;DHT22;5598;48.648;8.908;2023-03-14T06:51:05;8.70;99.90
11089;DHT22;5598;48.648;8.908;2023-03-14T06:53:32;8.90;99.90
11089;DHT22;5598;48.648;8.908;2023-03-14T06:55:58;9.10;99.90
11089;DHT22;5598;48.648;8.908;2023-03-14T06:58:26;9.30;99.90
11089;DHT22;5598;48.648;8.908;2023-03-14T07:00:53;9.50;99.90
11089;DHT22;5598;48.648;8.908;2023-03-14T07:03:22;10.20;99.90
11089;DHT22;5598;48.648;8.908;2023-03-14T07:05:49;10.00;99.90
11089;DHT22;5598;48.648;8.908;2023-03-14T07:08:16;9.30;99.90
11089;DHT22;5598;48.648;8.908;2023-03-14T07:10:43;8.80;99.90
11089;DHT22;5598;48.648;8.908;2023-03-14T07:13:10;9.40;99.90
11089;DHT22;5598;48.648;8.908;2023-03-14T07:15:38;10.60;99.90
11089;DHT22;5598;48.648;8.908;2023-03-14T07:18:05;11.60;99.90
11089;DHT22;5598;48.648;8.908;2023-03-14T07:20:31;11.80;99.90
11089;DHT22;5598;48.648;8.908;2023-03-14T07:22:58;11.90;99.90
11089;DHT22;5598;48.648;8.908;2023-03-14T07:25:28;12.00;99.90
11089;DHT22;5598;48.648;8.908;2023-03-14T07:27:55;11.80;99.90
11089;DHT22;5598;48.648;8.908;2023-03-14T07:30:21;11.70;99.90
11089;DHT22;5598;48.648;8.908;2023-03-14T07:32:49;12.10;99.90
11089;DHT22;5598;48.648;8.908;2023-03-14T07:35:16;12.20;99.90
11089;DHT22;5598;48.648;8.908;2023-03-14T07:37:43;11.90;99.90
11089;DHT22;5598;48.648;8.908;2023-03-14T07:40:11;11.80;99.90
11089;DHT22;5598;48.648;8.908;2023-03-14T07:42:40;12.20;99.90
11089;DHT22;5598;48.648;8.908;2023-03-14T07:45:08;12.90;99.90
11089;DHT22;5598;48.648;8.908;2023-03-14T07:47:34;13.30;99.90
11089;DHT22;5598;48.648;8.908;2023-03-14T07:50:03;12.70;99.90
11089;DHT22;5598;48.648;8.908;2023-03-14T07:52:30;11.90;99.90
11089;DHT22;5598;48.648;8.908;2023-03-14T07:54:57;12.20;99.90
11089;DHT22;5598;48.648;8.908;2023-03-14T07:57:23;11.70;99.90
11089;DHT22;5598;48.648;8.908;2023-03-14T07:59:50;11.50;99.90
11089;DHT22;5598;48.648;8.908;2023-03-14T08:02:17;11.20;99.90
11089;DHT22;5598;48.648;8.908;2023-03-14T08:04:47;10.90;99.90
11089;DHT22;5598;48.648;8.908;2023-03-14T08:07:16;10.70;99.90
11089;DHT22;5598;48.648;8.908;2023-03-14T08:09:42;10.60;99.90
11089;DHT22;5598;48.648;8.908;2023-03-14T08:12:09;10.70;99.90
11089;DHT22;5598;48.648;8.908;2023-03-14T08:14:36;10.80;99.90
11089;DHT22;5598;48.648;8.908;2023-03-14T08:17:03;10.80;99.90
11089;DHT22;5598;48.648;8.908;2023-03-14T08:19:30;10.80;99.90
11089;DHT22;5598;48.648;8.908;2023-03-14T08:21:57;10.80;99.90
11089;DHT22;5598;48.648;8.908;2023-03-14T08:24:25;10.60;99.90
11089;DHT22;5598;48.648;8.908;2023-03-14T08:26:52;10.50;99.90
11089;DHT22;5598;48.648;8.908;2023-03-14T08:29:19;10.50;99.90
11089;DHT22;5598;48.648;8.908;2023-03-14T08:31:46;10.40;99.90
11089;DHT22;5598;48.648;8.908;2023-03-14T08:34:14;10.40;99.90
11089;DHT22;5598;48.648;8.908;2023-03-14T08:36:41;10.50;99.90
11089;DHT22;5598;48.648;8.908;2023-03-14T08:39:08;10.80;99.90
11089;DHT22;5598;48.648;8.908;2023-03-14T08:41:36;10.70;99.90
11089;DHT22;5598;48.648;8.908;2023-03-14T08:44:06;10.50;99.90
11089;DHT22;5598;48.648;8.908;2023-03-14T08:46:32;10.30;99.90
11089;DHT22;5598;48.648;8.908;2023-03-14T08:48:59;10.10;99.90
11089;DHT22;5598;48.648;8.908;2023-03-14T08:51:26;9.90;99.90
11089;DHT22;5598;48.648;8.908;2023-03-14T08:53:53;9.70;99.90
11089;DHT22;5598;48.648;8.908;2023-03-14T08:56:19;9.50;99.90
11089;DHT22;5598;48.648;8.908;2023-03-14T08:58:48;9.30;99.90
11089;DHT22;5598;48.648;8.908;2023-03-14T09:01:14;9.10;99.90
11089;DHT22;5598;48.648;8.908;2023-03-14T09:03:41;9.00;99.90
11089;DHT22;5598;48.648;8.908;2023-03-14T09:06:09;8.90;99.90
11089;DHT22;5598;48.648;8.908;2023-03-14T09:08:36;8.90;99.90
11089;DHT22;5598;48.648;8.908;2023-03-14T09:11:05;8.90;99.90
11089;DHT22;5598;48.648;8.908;2023-03-14T09:13:32;9.00;99.90
11089;DHT22;5598;48.648;8.908;2023-03-14T09:16:00;9.00;99.90
11089;DHT22;5598;48.648;8.908;2023-03-14T09:18:27;9.20;99.90
11089;DHT22;5598;48.648;8.908;2023-03-14T09:20:55;9.30;99.90
11089;DHT22;5598;48.648;8.908;2023-03-14T09:23:22;9.40;99.90
11089;DHT22;5598;48.648;8.908;2023-03-14T09:25:49;9.50;99.90
11089;DHT22;5598;48.648;8.908;2023-03-14T09:28:15;9.60;99.90
11089;DHT22;5598;48.648;8.908;2023-03-14T09:30:42;9.60;99.90
11089;DHT22;5598;48.648;8.908;2023-03-14T09:33:10;9.70;99.90
11089;DHT22;5598;48.648;8.908;2023-03-14T09:35:37;9.90;99.90
11089;DHT22;5598;48.648;8.908;2023-03-14T09:38:04;10.10;99.90
11089;DHT22;5598;48.648;8.908;2023-03-14T09:40:33;10.20;99.90
11089;DHT22;5598;48.648;8.908;2023-03-14T09:43:01;10.10;99.90
11089;DHT22;5598;48.648;8.908;2023-03-14T09:45:31;10.10;99.90
11089;DHT22;5598;48.648;8.908;2023-03-14T09:48:00;10.20;99.90
11089;DHT22;5598;48.648;8.908;2023-03-14T09:50:35;10.30;99.90
11089;DHT22;5598;48.648;8.908;2023-03-14T09:53:06;10.60;99.90
11089;DHT22;5598;48.648;8.908;2023-03-14T09:55:33;11.70;99.90
11089;DHT22;5598;48.648;8.908;2023-03-14T09:58:03;12.60;99.90
11089;DHT22;5598;48.648;8.908;2023-03-14T10:00:31;13.50;99.90
11089;DHT22;5598;48.648;8.908;2023-03-14T10:03:04;13.50;99.90
11089;DHT22;5598;48.648;8.908;2023-03-14T10:05:35;13.60;99.90
11089;DHT22;5598;48.648;8.908;2023-03-14T10:08:02;13.80;99.90
11089;DHT22;5598;48.648;8.908;2023-03-14T10:10:28;13.00;99.90
11089;DHT22;5598;48.648;8.908;2023-03-14T10:12:58;12.50;99.90
11089;DHT22;5598;48.648;8.908;2023-03-14T10:15:27;12.00;99.90
11089;DHT22;5598;48.648;8.908;2023-03-14T10:17:58;11.40;99.90
11089;DHT22;5598;48.648;8.908;2023-03-14T10:20:28;11.00;99.90
11089;DHT22;5598;48.648;8.908;2023-03-14T10:23:00;11.00;99.90
11089;DHT22;5598;48.648;8.908;2023-03-14T10:25:30;11.30;99.90
11089;DHT22;5598;48.648;8.908;2023-03-14T10:27:57;11.60;99.90
11089;DHT22;5598;48.648;8.908;2023-03-14T10:30:33;11.80;99.90
11089;DHT22;5598;48.648;8.908;2023-03-14T10:33:08;11.60;99.90
11089;DHT22;5598;48.648;8.908;2023-03-14T10:35:35;11.40;99.90
11089;DHT22;5598;48.648;8.908;2023-03-14T10:38:04;11.30;99.90
11089;DHT22;5598;48.648;8.908;2023-03-14T10:40:33;11.20;99.90
11089;DHT22;5598;48.648;8.908;2023-03-14T10:43:05;10.90;99.90
11089;DHT22;5598;48.648;8.908;2023-03-14T10:45:35;10.80;99.90
11089;DHT22;5598;48.648;8.908;2023-03-14T10:48:18;10.60;99.90
11089;DHT22;5598;48.648;8.908;2023-03-14T10:50:50;10.40;99.90
11089;DHT22;5598;48.648;8.908;2023-03-14T10:53:21;10.20;99.90
11089;DHT22;5598;48.648;8.908;2023-03-14T10:55:47;10.10;99.90
11089;DHT22;5598;48.648;8.908;2023-03-14T10:58:23;10.10;99.90
11089;DHT22;5598;48.648;8.908;2023-03-14T11:00:54;10.00;99.90
11089;DHT22;5598;48.648;8.908;2023-03-14T11:03:24;10.00;99.90
11089;DHT22;5598;48.648;8.908;2023-03-14T11:05:56;9.90;99.90
11089;DHT22;5598;48.648;8.908;2023-03-14T11:08:27;9.80;99.90
11089;DHT22;5598;48.648;8.908;2023-03-14T11:11:07;9.70;99.90
11089;DHT22;5598;48.648;8.908;2023-03-14T11:13:40;9.70;99.90
11089;DHT22;5598;48.648;8.908;2023-03-14T11:16:16;9.70;99.90
11089;DHT22;5598;48.648;8.908;2023-03-14T11:19:01;9.60;99.90
11089;DHT22;5598;48.648;8.908;2023-03-14T11:21:35;9.50;99.90
11089;DHT22;5598;48.648;8.908;2023-03-14T11:24:19;9.30;99.90
11089;DHT22;5598;48.648;8.908;2023-03-14T11:26:51;9.10;99.90
11089;DHT22;5598;48.648;8.908;2023-03-14T11:29:24;9.10;99.90
11089;DHT22;5598;48.648;8.908;2023-03-14T11:31:56;9.10;99.90
11089;DHT22;5598;48.648;8.908;2023-03-14T11:34:28;9.10;99.90
11089;DHT22;5598;48.648;8.908;2023-03-14T11:37:00;9.10;99.90
11089;DHT22;5598;48.648;8.908;2023-03-14T11:39:39;9.20;99.90
11089;DHT22;5598;48.648;8.908;2023-03-14T11:42:11;9.20;99.90
11089;DHT22;5598;48.648;8.908;2023-03-14T11:44:39;9.20;99.90
11089;DHT22;5598;48.648;8.908;2023-03-14T11:47:12;9.20;99.90
11089;DHT22;5598;48.648;8.908;2023-03-14T11:49:43;9.20;99.90
11089;DHT22;5598;48.648;8.908;2023-03-14T11:52:13;9.10;99.90
11089;DHT22;5598;48.648;8.908;2023-03-14T11:54:47;9.10;99.90
11089;DHT22;5598;48.648;8.908;2023-03-14T11:57:16;9.00;99.90
11089;DHT22;5598;48.648;8.908;2023-03-14T11:59:50;8.90;99.90
11089;DHT22;5598;48.648;8.908;2023-03-14T12:02:22;8.90;99.90
11089;DHT22;5598;48.648;8.908;2023-03-14T12:05:14;8.90;99.90
11089;DHT22;5598;48.648;8.908;2023-03-14T12:07:54;8.70;99.90
11089;DHT22;5598;48.648;8.908;2023-03-14T12:10:28;8.80;99.90
11089;DHT22;5598;48.648;8.908;2023-03-14T12:12:55;9.10;99.90
11089;DHT22;5598;48.648;8.908;2023-03-14T12:15:22;9.20;99.90
11089;DHT22;5598;48.648;8.908;2023-03-14T12:17:54;9.20;99.90
11089;DHT22;5598;48.648;8.908;2023-03-14T12:20:22;9.10;99.90
11089;DHT22;5598;48.648;8.908;2023-03-14T12:22:51;9.20;99.90
11089;DHT22;5598;48.648;8.908;2023-03-14T12:25:20;9.30;99.90
11089;DHT22;5598;48.648;8.908;2023-03-14T12:28:02;9.30;99.90
11089;DHT22;5598;48.648;8.908;2023-03-14T12:30:31;9.20;99.90
11089;DHT22;5598;48.648;8.908;2023-03-14T12:33:21;9.20;99.90
11089;DHT22;5598;48.648;8.908;2023-03-14T12:35:57;10.20;99.90
11089;DHT22;5598;48.648;8.908;2023-03-14T12:38:32;10.90;99.90
11089;DHT22;5598;48.648;8.908;2023-03-14T12:41:10;11.30;99.90
11089;DHT22;5598;48.648;8.908;2023-03-14T12:43:40;12.00;99.90
11089;DHT22;5598;48.648;8.908;2023-03-14T12:46:14;12.40;99.90
11089;DHT22;5598;48.648;8.908;2023-03-14T12:48:44;12.50;99.90
11089;DHT22;5598;48.648;8.908;2023-03-14T12:51:13;12.30;99.90
11089;DHT22;5598;48.648;8.908;2023-03-14T12:56:57;10.70;99.90
11089;DHT22;5598;48.648;8.908;2023-03-14T12:59:33;10.40;99.90
11089;DHT22;5598;48.648;8.908;2023-03-14T13:02:14;10.50;99.90
11089;DHT22;5598;48.648;8.908;2023-03-14T13:04:47;10.80;99.90
11089;DHT22;5598;48.648;8.908;2023-03-14T13:07:31;11.40;99.90
11089;DHT22;5598;48.648;8.908;2023-03-14T13:10:05;10.80;99.90
11089;DHT22;5598;48.648;8.908;2023-03-14T13:12:46;10.30;99.90
11089;DHT22;5598;48.648;8.908;2023-03-14T13:15:22;9.80;99.90
11089;DHT22;5598;48.648;8.908;2023-03-14T13:17:51;9.30;99.90
11089;DHT22;5598;48.648;8.908;2023-03-14T13:20:23;8.80;99.90
11089;DHT22;5598;48.648;8.908;2023-03-14T13:22:51;8.60;99.90
11089;DHT22;5598;48.648;8.908;2023-03-14T13:25:18;8.50;99.90
11089;DHT22;5598;48.648;8.908;2023-03-14T13:27:47;8.40;99.90
11089;DHT22;5598;48.648;8.908;2023-03-14T13:30:35;8.30;99.90
11089;DHT22;5598;48.648;8.908;2023-03-14T13:33:04;8.40;99.90
11089;DHT22;5598;48.648;8.908;2023-03-14T13:35:40;8.50;99.90
11089;DHT22;5598;48.648;8.908;2023-03-14T13:38:19;8.40;99.90
11089;DHT22;5598;48.648;8.908;2023-03-14T13:40:50;8.40;99.90
11089;DHT22;5598;48.648;8.908;2023-03-14T13:43:20;8.20;99.90
11089;DHT22;5598;48.648;8.908;2023-03-14T13:45:54;8.10;99.60
11089;DHT22;5598;48.648;8.908;2023-03-14T13:48:26;8.10;99.90
11089;DHT22;5598;48.648;8.908;2023-03-14T13:50:55;8.10;99.90
11089;DHT22;5598;48.648;8.908;2023-03-14T13:53:22;8.10;98.80
11089;DHT22;5598;48.648;8.908;2023-03-14T13:55:50;8.20;99.40
11089;DHT22;5598;48.648;8.908;2023-03-14T13:58:23;8.10;97.60
11089;DHT22;5598;48.648;8.908;2023-03-14T14:01:00;8.00;98.40
11089;DHT22;5598;48.648;8.908;2023-03-14T14:03:31;8.00;98.00
11089;DHT22;5598;48.648;8.908;2023-03-14T14:05:58;8.00;97.20
11089;DHT22;5598;48.648;8.908;2023-03-14T14:08:26;7.90;95.70
11089;DHT22;5598;48.648;8.908;2023-03-14T14:10:58;7.80;95.70
11089;DHT22;5598;48.648;8.908;2023-03-14T14:13:30;7.80;97.10
11089;DHT22;5598;48.648;8.908;2023-03-14T14:16:01;7.80;95.10
11089;DHT22;5598;48.648;8.908;2023-03-14T14:18:30;7.80;96.80
11089;DHT22;5598;48.648;8.908;2023-03-14T14:20:58;7.80;97.10
11089;DHT22;5598;48.648;8.908;2023-03-14T14:23:26;7.80;96.70
11089;DHT22;5598;48.648;8.908;2023-03-14T14:25:55;7.80;94.80
11089;DHT22;5598;48.648;8.908;2023-03-14T14:28:26;7.70;96.80
11089;DHT22;5598;48.648;8.908;2023-03-14T14:31:15;7.60;95.60
11089;DHT22;5598;48.648;8.908;2023-03-14T14:33:45;7.60;96.90
11089;DHT22;5598;48.648;8.908;2023-03-14T14:36:16;7.60;95.50
11089;DHT22;5598;48.648;8.908;2023-03-14T14:38:50;7.60;95.20
11089;DHT22;5598;48.648;8.908;2023-03-14T14:41:17;7.70;95.40
11089;DHT22;5598;48.648;8.908;2023-03-14T14:43:44;7.90;96.50
11089;DHT22;5598;48.648;8.908;2023-03-14T14:46:17;7.80;94.00
11089;DHT22;5598;48.648;8.908;2023-03-14T14:48:45;7.80;94.80
11089;DHT22;5598;48.648;8.908;2023-03-14T14:51:23;7.80;95.60
11089;DHT22;5598;48.648;8.908;2023-03-14T14:53:59;7.90;95.60
11089;DHT22;5598;48.648;8.908;2023-03-14T14:56:27;8.00;95.00
11089;DHT22;5598;48.648;8.908;2023-03-14T14:58:57;8.10;94.60
11089;DHT22;5598;48.648;8.908;2023-03-14T15:01:32;8.10;95.30
11089;DHT22;5598;48.648;8.908;2023-03-14T15:04:00;8.10;94.80
11089;DHT22;5598;48.648;8.908;2023-03-14T15:06:29;8.00;94.70
11089;DHT22;5598;48.648;8.908;2023-03-14T15:08:57;8.00;96.10
11089;DHT22;5598;48.648;8.908;2023-03-14T15:11:25;7.90;94.60
11089;DHT22;5598;48.648;8.908;2023-03-14T15:13:53;7.80;94.50
11089;DHT22;5598;48.648;8.908;2023-03-14T15:16:21;7.70;94.50
11089;DHT22;5598;48.648;8.908;2023-03-14T15:18:53;7.60;94.40
11089;DHT22;5598;48.648;8.908;2023-03-14T15:21:21;7.70;95.80
11089;DHT22;5598;48.648;8.908;2023-03-14T15:23:48;7.70;95.50
11089;DHT22;5598;48.648;8.908;2023-03-14T15:26:16;7.50;95.10
11089;DHT22;5598;48.648;8.908;2023-03-14T15:28:43;7.50;94.30
11089;DHT22;5598;48.648;8.908;2023-03-14T15:31:11;7.40;94.40
11089;DHT22;5598;48.648;8.908;2023-03-14T15:33:38;7.40;94.90
11089;DHT22;5598;48.648;8.908;2023-03-14T15:36:16;7.30;95.30
11089;DHT22;5598;48.648;8.908;2023-03-14T15:38:45;7.30;94.30
11089;DHT22;5598;48.648;8.908;2023-03-14T15:41:12;7.40;96.00
11089;DHT22;5598;48.648;8.908;2023-03-14T15:43:38;7.30;94.60
11089;DHT22;5598;48.648;8.908;2023-03-14T15:46:07;7.30;95.30
11089;DHT22;5598;48.648;8.908;2023-03-14T15:48:34;7.40;95.60
11089;DHT22;5598;48.648;8.908;2023-03-14T15:51:01;7.40;95.20
11089;DHT22;5598;48.648;8.908;2023-03-14T15:53:29;7.30;95.00
11089;DHT22;5598;48.648;8.908;2023-03-14T15:55:56;7.30;95.20
11089;DHT22;5598;48.648;8.908;2023-03-14T15:58:23;7.30;95.60
11089;DHT22;5598;48.648;8.908;2023-03-14T16:00:50;7.20;95.20
11089;DHT22;5598;48.648;8.908;2023-03-14T16:03:17;7.20;95.10
11089;DHT22;5598;48.648;8.908;2023-03-14T16:05:44;7.10;96.00
11089;DHT22;5598;48.648;8.908;2023-03-14T16:08:11;7.10;94.70
11089;DHT22;5598;48.648;8.908;2023-03-14T16:10:39;7.20;95.80
11089;DHT22;5598;48.648;8.908;2023-03-14T16:13:06;7.20;95.30